createdAt,value
2022-09-26T00:00:34.741Z,95592.47
2022-09-26T00:03:02.660Z,95594.31
2022-09-26T00:05:33.739Z,95581.88
2022-09-26T00:08:01.609Z,95576.72
2022-09-26T00:10:30.566Z,95573.06
2022-09-26T00:12:58.143Z,95577.75
2022-09-26T00:15:26.084Z,95575.16
2022-09-26T00:17:53.756Z,95567.69
2022-09-26T00:20:21.316Z,95579.22
2022-09-26T00:22:48.863Z,95571.78
2022-09-26T00:25:16.639Z,95572.94
2022-09-26T00:27:45.455Z,95558.91
2022-09-26T00:30:13.152Z,95561.38
2022-09-26T00:32:40.624Z,95555.75
2022-09-26T00:35:09.016Z,95546.34
2022-09-26T00:37:36.502Z,95550.25
2022-09-26T00:40:04.370Z,95551.38
2022-09-26T00:42:31.948Z,95545.94
2022-09-26T00:45:00.804Z,95545.94
2022-09-26T00:47:38.069Z,95541.63
2022-09-26T00:50:10.649Z,95543.22
2022-09-26T00:52:42.403Z,95543.88
2022-09-26T00:55:14.079Z,95540.84
2022-09-26T00:57:46.340Z,95543.13
2022-09-26T01:00:16.415Z,95536.09
2022-09-26T01:02:45.533Z,95546.78
2022-09-26T01:05:16.922Z,95545.31
2022-09-26T01:07:45.120Z,95545.28
2022-09-26T01:10:13.135Z,95538.38
2022-09-26T01:12:40.699Z,95536.09
2022-09-26T01:15:09.288Z,95539.38
2022-09-26T01:17:39.733Z,95535.25
2022-09-26T01:20:25.435Z,95532.72
2022-09-26T01:23:26.611Z,95531.00
2022-09-26T01:26:24.755Z,95527.06
2022-09-26T01:29:28.810Z,95537.72
2022-09-26T01:32:22.768Z,95535.13
2022-09-26T01:34:59.363Z,95526.84
2022-09-26T01:37:34.045Z,95537.97
2022-09-26T01:40:11.749Z,95532.41
2022-09-26T01:42:48.343Z,95522.78
2022-09-26T01:45:19.925Z,95531.88
2022-09-26T01:47:56.180Z,95536.72
2022-09-26T01:50:34.773Z,95548.25
2022-09-26T01:53:07.304Z,95543.66
2022-09-26T01:55:40.805Z,95550.34
2022-09-26T01:58:13.094Z,95547.34
2022-09-26T02:00:43.284Z,95552.25
2022-09-26T02:03:16.573Z,95536.22
2022-09-26T02:05:47.536Z,95550.06
2022-09-26T02:08:18.634Z,95545.66
2022-09-26T02:10:49.430Z,95544.00
2022-09-26T02:13:21.159Z,95543.63
2022-09-26T02:15:53.337Z,95545.81
2022-09-26T02:18:28.995Z,95543.22
2022-09-26T02:21:02.135Z,95544.16
2022-09-26T02:23:29.740Z,95545.56
2022-09-26T02:25:57.273Z,95544.09
2022-09-26T02:28:24.820Z,95541.63
2022-09-26T02:30:55.350Z,95541.38
2022-09-26T02:33:24.812Z,95538.84
2022-09-26T02:35:54.434Z,95542.72
2022-09-26T02:38:22.247Z,95542.19
2022-09-26T02:40:56.860Z,95532.59
2022-09-26T02:43:37.048Z,95537.50
2022-09-26T02:46:18.980Z,95529.56
2022-09-26T02:49:04.548Z,95526.56
2022-09-26T02:51:49.747Z,95524.78
2022-09-26T02:54:24.716Z,95531.56
2022-09-26T02:57:11.515Z,95524.88
2022-09-26T02:59:49.811Z,95528.28
2022-09-26T03:02:20.582Z,95525.44
2022-09-26T03:04:53.600Z,95521.78
2022-09-26T03:07:25.148Z,95515.47
2022-09-26T03:09:54.129Z,95518.81
2022-09-26T03:12:23.909Z,95523.50
2022-09-26T03:14:55.462Z,95513.69
2022-09-26T03:17:26.896Z,95511.22
2022-09-26T03:20:00.701Z,95513.44
2022-09-26T03:22:28.373Z,95505.31
2022-09-26T03:24:59.238Z,95513.06
2022-09-26T03:27:27.691Z,95513.09
2022-09-26T03:29:55.196Z,95513.63
2022-09-26T03:32:22.727Z,95521.13
2022-09-26T03:34:51.154Z,95513.41
2022-09-26T03:37:20.008Z,95515.88
2022-09-26T03:39:47.478Z,95516.81
2022-09-26T03:42:16.662Z,95503.06
2022-09-26T03:44:44.127Z,95511.59
2022-09-26T03:47:11.606Z,95512.00
2022-09-26T03:49:39.309Z,95506.88
2022-09-26T03:52:07.304Z,95502.88
2022-09-26T03:54:36.089Z,95507.53
2022-09-26T03:57:03.771Z,95503.19
2022-09-26T03:59:31.218Z,95500.84
2022-09-26T04:01:58.880Z,95502.44
2022-09-26T04:04:26.714Z,95498.94
2022-09-26T04:06:54.172Z,95500.50
2022-09-26T04:09:21.987Z,95491.47
2022-09-26T04:11:51.096Z,95489.22
2022-09-26T04:14:18.568Z,95492.19
2022-09-26T04:16:46.173Z,95491.63
2022-09-26T04:19:14.456Z,95491.59
2022-09-26T04:21:42.733Z,95479.97
2022-09-26T04:24:14.512Z,95491.28
2022-09-26T04:26:42.815Z,95486.97
2022-09-26T04:29:12.019Z,95479.53
2022-09-26T04:31:40.300Z,95476.03
2022-09-26T04:34:07.933Z,95482.03
2022-09-26T04:36:35.460Z,95481.44
2022-09-26T04:39:02.978Z,95480.66
2022-09-26T04:41:31.387Z,95487.72
2022-09-26T04:44:00.208Z,95481.56
2022-09-26T04:46:31.381Z,95480.44
2022-09-26T04:49:00.753Z,95477.91
2022-09-26T04:51:29.582Z,95469.50
2022-09-26T04:53:57.229Z,95468.88
2022-09-26T04:56:26.508Z,95467.88
2022-09-26T04:58:56.152Z,95468.38
2022-09-26T05:01:24.019Z,95472.66
2022-09-26T05:03:53.389Z,95475.19
2022-09-26T05:06:20.856Z,95466.31
2022-09-26T05:08:48.441Z,95472.38
2022-09-26T05:11:17.180Z,95468.75
2022-09-26T05:13:45.151Z,95453.94
2022-09-26T05:16:14.425Z,95457.53
2022-09-26T05:18:42.038Z,95453.16
2022-09-26T05:21:11.068Z,95460.06
2022-09-26T05:23:55.564Z,95459.59
2022-09-26T05:26:27.299Z,95462.63
2022-09-26T05:28:56.632Z,95464.72
2022-09-26T05:31:26.200Z,95467.72
2022-09-26T05:33:53.765Z,95463.06
2022-09-26T05:36:22.581Z,95462.63
2022-09-26T05:38:50.103Z,95461.16
2022-09-26T05:41:17.229Z,95459.69
2022-09-26T05:43:44.710Z,95458.13
2022-09-26T05:46:12.828Z,95464.16
2022-09-26T05:48:41.339Z,95459.59
2022-09-26T05:51:11.732Z,95459.84
2022-09-26T05:53:41.601Z,95459.69
2022-09-26T05:56:12.733Z,95459.50
2022-09-26T05:58:42.624Z,95467.59
2022-09-26T06:01:12.711Z,95463.03
2022-09-26T06:03:44.093Z,95453.94
2022-09-26T06:06:13.079Z,95456.94
2022-09-26T06:08:42.828Z,95467.97
2022-09-26T06:11:12.857Z,95464.69
2022-09-26T06:13:43.992Z,95464.75
2022-09-26T06:16:14.441Z,95466.78
2022-09-26T06:18:42.477Z,95467.31
2022-09-26T06:21:12.714Z,95467.72
2022-09-26T06:23:42.057Z,95457.78
2022-09-26T06:26:12.304Z,95476.03
2022-09-26T06:28:40.112Z,95467.22
2022-09-26T06:31:10.654Z,95465.09
2022-09-26T06:33:38.166Z,95465.66
2022-09-26T06:36:07.650Z,95462.16
2022-09-26T06:38:35.606Z,95466.00
2022-09-26T06:41:05.332Z,95462.31
2022-09-26T06:43:33.940Z,95460.78
2022-09-26T06:46:01.530Z,95460.16
2022-09-26T06:48:29.181Z,95454.47
2022-09-26T06:51:00.401Z,95447.31
2022-09-26T06:53:28.485Z,95445.94
2022-09-26T06:55:56.125Z,95437.84
2022-09-26T06:58:25.362Z,95436.16
2022-09-26T07:00:52.950Z,95448.13
2022-09-26T07:03:20.515Z,95438.22
2022-09-26T07:05:48.001Z,95447.66
2022-09-26T07:08:16.883Z,95446.44
2022-09-26T07:10:44.360Z,95448.19
2022-09-26T07:13:11.869Z,95454.75
2022-09-26T07:15:40.715Z,95452.50
2022-09-26T07:18:08.268Z,95449.94
2022-09-26T07:20:39.938Z,95446.75
2022-09-26T07:23:09.274Z,95446.13
2022-09-26T07:25:39.367Z,95444.88
2022-09-26T07:28:08.083Z,95463.81
2022-09-26T07:30:35.639Z,95455.56
2022-09-26T07:33:05.396Z,95460.09
2022-09-26T07:35:34.433Z,95456.28
2022-09-26T07:38:02.402Z,95454.03
2022-09-26T07:40:30.043Z,95455.53
2022-09-26T07:43:18.734Z,95437.72
2022-09-26T07:46:05.159Z,95431.59
2022-09-26T07:48:51.881Z,95440.97
2022-09-26T07:51:20.668Z,95436.75
2022-09-26T07:53:48.141Z,95449.31
2022-09-26T07:56:16.410Z,95457.22
2022-09-26T07:58:44.438Z,95463.38
2022-09-26T08:01:14.567Z,95455.72
2022-09-26T08:03:45.068Z,95449.78
2022-09-26T08:06:14.603Z,95454.91
2022-09-26T08:08:42.261Z,95461.81
2022-09-26T08:11:15.918Z,95455.06
2022-09-26T08:13:43.925Z,95456.63
2022-09-26T08:16:12.298Z,95454.06
2022-09-26T08:18:39.831Z,95441.72
2022-09-26T08:21:08.904Z,95442.75
2022-09-26T08:23:36.857Z,95429.78
2022-09-26T08:26:05.076Z,95435.75
2022-09-26T08:28:32.554Z,95429.72
2022-09-26T08:31:05.258Z,95424.44
2022-09-26T08:33:35.327Z,95436.19
2022-09-26T08:36:08.308Z,95428.63
2022-09-26T08:38:36.362Z,95433.53
2022-09-26T08:41:17.296Z,95430.78
2022-09-26T08:44:01.097Z,95432.50
2022-09-26T08:46:48.871Z,95430.25
2022-09-26T08:49:39.633Z,95416.47
2022-09-26T08:52:22.121Z,95423.34
2022-09-26T08:54:51.268Z,95425.72
2022-09-26T08:57:34.258Z,95427.78
2022-09-26T09:00:09.911Z,95426.09
2022-09-26T09:02:42.577Z,95417.06
2022-09-26T09:05:16.203Z,95419.28
2022-09-26T09:07:49.822Z,95419.75
2022-09-26T09:10:20.286Z,95421.13
2022-09-26T09:13:03.421Z,95419.94
2022-09-26T09:15:44.692Z,95424.44
2022-09-26T09:18:22.642Z,95425.53
2022-09-26T09:20:58.493Z,95421.81
2022-09-26T09:23:46.556Z,95425.19
2022-09-26T09:29:25.534Z,95414.88
2022-09-26T09:31:55.544Z,95414.41
2022-09-26T09:34:29.842Z,95410.13
2022-09-26T09:37:00.193Z,95395.53
2022-09-26T09:39:33.433Z,95391.25
2022-09-26T09:42:07.624Z,95381.84
2022-09-26T09:44:46.727Z,95376.50
2022-09-26T09:47:16.508Z,95380.22
2022-09-26T09:49:45.135Z,95375.72
2022-09-26T09:52:27.256Z,95374.00
2022-09-26T09:55:10.691Z,95383.53
2022-09-26T09:58:05.911Z,95377.00
2022-09-26T10:00:39.991Z,95377.78
2022-09-26T10:03:18.371Z,95377.75
2022-09-26T10:05:48.058Z,95364.47
2022-09-26T10:08:19.319Z,95362.28
2022-09-26T10:10:55.552Z,95361.72
2022-09-26T10:13:26.087Z,95370.78
2022-09-26T10:15:59.860Z,95365.06
2022-09-26T10:18:27.879Z,95360.22
2022-09-26T10:20:57.635Z,95349.53
2022-09-26T10:23:32.724Z,95346.00
2022-09-26T10:26:04.135Z,95345.22
2022-09-26T10:28:37.509Z,95337.56
2022-09-26T10:31:08.250Z,95347.69
2022-09-26T10:33:38.815Z,95353.84
2022-09-26T10:36:12.730Z,95354.38
2022-09-26T10:39:10.728Z,95363.78
2022-09-26T10:41:45.039Z,95357.78
2022-09-26T10:44:24.211Z,95357.00
2022-09-26T10:46:57.786Z,95356.13
2022-09-26T10:49:31.960Z,95351.09
2022-09-26T10:52:11.009Z,95349.25
2022-09-26T10:54:45.623Z,95334.09
2022-09-26T10:57:24.123Z,95333.59
2022-09-26T10:59:54.217Z,95339.66
2022-09-26T11:02:24.832Z,95334.72
2022-09-26T11:05:14.419Z,95330.78
2022-09-26T11:07:44.805Z,95330.47
2022-09-26T11:10:15.278Z,95327.25
2022-09-26T11:12:58.819Z,95314.41
2022-09-26T11:15:28.560Z,95316.09
2022-09-26T11:17:56.693Z,95315.69
2022-09-26T11:20:44.639Z,95297.09
2022-09-26T11:23:20.833Z,95285.47
2022-09-26T11:25:57.963Z,95293.13
2022-09-26T11:28:34.176Z,95290.81
2022-09-26T11:31:08.892Z,95301.53
2022-09-26T11:33:37.299Z,95286.81
2022-09-26T11:36:19.788Z,95292.56
2022-09-26T11:38:48.554Z,95291.63
2022-09-26T11:41:41.958Z,95288.41
2022-09-26T11:44:24.135Z,95282.47
2022-09-26T11:47:06.807Z,95269.63
2022-09-26T11:49:51.519Z,95275.44
2022-09-26T11:52:37.553Z,95272.19
2022-09-26T11:55:17.626Z,95266.06
2022-09-26T11:57:54.200Z,95274.31
2022-09-26T12:00:27.822Z,95273.50
2022-09-26T12:03:39.405Z,95264.84
2022-09-26T12:06:18.822Z,95266.50
2022-09-26T12:09:00.384Z,95264.84
2022-09-26T12:11:37.275Z,95253.13
2022-09-26T12:14:13.919Z,95254.13
2022-09-26T12:16:51.782Z,95251.44
2022-09-26T12:19:26.176Z,95244.75
2022-09-26T12:22:19.598Z,95231.56
2022-09-26T12:24:58.343Z,95223.56
2022-09-26T12:27:35.969Z,95219.66
2022-09-26T12:30:10.107Z,95208.72
2022-09-26T12:32:57.979Z,95208.97
2022-09-26T12:35:43.195Z,95207.03
2022-09-26T12:38:56.635Z,95201.78
2022-09-26T12:41:44.601Z,95206.47
2022-09-26T12:44:25.669Z,95203.66
2022-09-26T12:47:08.269Z,95199.25
2022-09-26T12:49:54.359Z,95194.00
2022-09-26T12:52:37.331Z,95191.25
2022-09-26T12:55:22.372Z,95192.34
2022-09-26T12:58:02.336Z,95190.56
2022-09-26T13:00:36.207Z,95190.69
2022-09-26T13:03:36.939Z,95192.00
2022-09-26T13:06:35.877Z,95191.25
2022-09-26T13:09:20.870Z,95181.47
2022-09-26T13:11:57.032Z,95180.72
2022-09-26T13:14:51.711Z,95174.59
2022-09-26T13:17:22.164Z,95174.47
2022-09-26T13:19:56.861Z,95167.00
2022-09-26T13:22:34.407Z,95170.00
2022-09-26T13:25:07.346Z,95160.09
2022-09-26T13:27:38.943Z,95156.41
2022-09-26T13:30:14.931Z,95159.13
2022-09-26T13:32:53.111Z,95148.69
2022-09-26T13:35:23.400Z,95145.47
2022-09-26T13:38:09.154Z,95144.97
2022-09-26T13:40:42.359Z,95144.94
2022-09-26T13:43:24.405Z,95142.09
2022-09-26T13:46:02.068Z,95136.84
2022-09-26T13:48:38.436Z,95139.78
2022-09-26T13:51:18.260Z,95141.53
2022-09-26T13:54:00.082Z,95130.34
2022-09-26T13:56:47.479Z,95130.06
2022-09-26T13:59:27.491Z,95132.72
2022-09-26T14:02:15.700Z,95118.00
2022-09-26T14:04:44.236Z,95107.72
2022-09-26T14:07:36.967Z,95107.72
2022-09-26T14:10:21.199Z,95108.19
2022-09-26T14:13:06.538Z,95106.97
2022-09-26T14:15:56.837Z,95091.88
2022-09-26T14:18:38.896Z,95100.91
2022-09-26T14:21:28.364Z,95082.69
2022-09-26T14:24:26.970Z,95064.94
2022-09-26T14:27:21.495Z,95068.38
2022-09-26T14:29:53.280Z,95070.66
2022-09-26T14:32:24.222Z,95062.88
2022-09-26T14:34:57.238Z,95057.16
2022-09-26T14:37:31.717Z,95055.97
2022-09-26T14:40:16.032Z,95046.25
2022-09-26T14:42:53.891Z,95045.63
2022-09-26T14:45:26.143Z,95043.38
2022-09-26T14:48:15.667Z,95038.38
2022-09-26T14:50:48.506Z,95045.50
2022-09-26T14:53:24.688Z,95039.19
2022-09-26T14:56:00.059Z,95045.31
2022-09-26T14:58:46.009Z,95033.06
2022-09-26T15:01:19.158Z,95041.41
2022-09-26T15:04:02.860Z,95050.72
2022-09-26T15:06:31.562Z,95044.00
2022-09-26T15:09:00.152Z,95038.72
2022-09-26T15:11:44.299Z,95034.41
2022-09-26T15:14:22.408Z,95034.44
2022-09-26T15:16:54.642Z,95035.22
2022-09-26T15:19:25.987Z,95031.19
2022-09-26T15:21:59.080Z,95038.00
2022-09-26T15:24:29.245Z,95035.66
2022-09-26T15:26:59.315Z,95037.31
2022-09-26T15:29:28.417Z,95028.22
2022-09-26T15:31:57.572Z,95015.84
2022-09-26T15:34:33.151Z,95014.22
2022-09-26T15:37:02.137Z,95023.53
2022-09-26T15:39:38.060Z,95022.16
2022-09-26T15:42:39.108Z,95026.00
2022-09-26T15:45:22.395Z,95014.22
2022-09-26T15:47:50.073Z,95015.81
2022-09-26T15:50:20.796Z,95007.16
2022-09-26T15:52:55.090Z,95011.28
2022-09-26T15:55:26.006Z,95015.22
2022-09-26T15:57:56.798Z,95010.88
2022-09-26T16:00:25.637Z,95013.19
2022-09-26T16:02:53.686Z,95011.47
2022-09-26T16:05:22.383Z,95009.13
2022-09-26T16:07:52.850Z,95000.97
2022-09-26T16:10:22.702Z,95000.13
2022-09-26T16:12:50.199Z,94988.03
2022-09-26T16:15:28.668Z,95002.78
2022-09-26T16:17:59.455Z,94999.50
2022-09-26T16:20:29.260Z,95006.47
2022-09-26T16:23:03.326Z,95005.09
2022-09-26T16:25:35.314Z,95001.91
2022-09-26T16:28:21.923Z,95000.97
2022-09-26T16:31:10.315Z,94997.88
2022-09-26T16:33:40.801Z,94998.06
2022-09-26T16:36:18.489Z,95000.25
2022-09-26T16:38:52.358Z,95000.34
2022-09-26T16:41:48.970Z,95006.22
2022-09-26T16:44:27.639Z,95004.91
2022-09-26T16:47:00.127Z,95009.22
2022-09-26T16:49:42.078Z,95002.03
2022-09-26T16:52:12.281Z,95002.97
2022-09-26T16:54:39.815Z,95012.06
2022-09-26T16:57:11.958Z,95010.28
2022-09-26T16:59:39.411Z,94998.72
2022-09-26T17:02:09.704Z,94999.25
2022-09-26T17:04:38.998Z,94999.22
2022-09-26T17:07:12.589Z,94997.63
2022-09-26T17:09:41.907Z,95004.47
2022-09-26T17:12:17.775Z,95002.31
2022-09-26T17:14:48.308Z,94991.25
2022-09-26T17:17:21.595Z,94989.69
2022-09-26T17:19:58.243Z,94982.69
2022-09-26T17:22:26.788Z,94991.44
2022-09-26T17:24:54.936Z,94985.38
2022-09-26T17:27:27.010Z,94981.47
2022-09-26T17:29:59.499Z,94978.53
2022-09-26T17:32:29.954Z,94982.88
2022-09-26T17:35:01.107Z,94974.66
2022-09-26T17:37:29.001Z,94975.53
2022-09-26T17:39:56.991Z,94976.97
2022-09-26T17:42:25.089Z,94987.25
2022-09-26T17:44:52.523Z,94985.88
2022-09-26T17:47:20.424Z,94985.56
2022-09-26T17:49:56.212Z,94991.78
2022-09-26T17:52:28.901Z,94987.13
2022-09-26T17:54:58.535Z,94977.94
2022-09-26T17:57:27.854Z,94980.00
2022-09-26T17:59:55.378Z,94984.63
2022-09-26T18:02:30.365Z,94977.16
2022-09-26T18:05:03.128Z,94978.94
2022-09-26T18:07:36.365Z,94976.41
2022-09-26T18:10:07.271Z,94977.03
2022-09-26T18:12:35.736Z,94978.66
2022-09-26T18:15:05.240Z,94986.78
2022-09-26T18:17:32.749Z,94981.16
2022-09-26T18:20:00.204Z,94976.31
2022-09-26T18:22:32.435Z,94980.97
2022-09-26T18:25:05.814Z,94979.41
2022-09-26T18:27:36.655Z,94978.88
2022-09-26T18:30:05.253Z,94973.09
2022-09-26T18:32:37.445Z,94968.34
2022-09-26T18:35:05.301Z,94970.28
2022-09-26T18:37:32.807Z,94963.34
2022-09-26T18:40:04.425Z,94963.22
2022-09-26T18:42:32.942Z,94971.03
2022-09-26T18:45:03.478Z,94971.91
2022-09-26T18:47:42.405Z,94984.31
2022-09-26T18:50:19.473Z,94984.88
2022-09-26T18:52:47.064Z,94973.63
2022-09-26T18:55:37.715Z,94983.59
2022-09-26T18:58:23.037Z,94976.78
2022-09-26T19:00:54.335Z,94975.34
2022-09-26T19:03:22.525Z,94979.25
2022-09-26T19:05:50.479Z,94974.25
2022-09-26T19:08:34.003Z,94967.28
2022-09-26T19:11:07.843Z,94966.66
2022-09-26T19:13:35.349Z,94965.75
2022-09-26T19:16:02.994Z,94963.34
2022-09-26T19:18:30.828Z,94960.72
2022-09-26T19:20:58.437Z,94944.44
2022-09-26T19:23:30.572Z,94959.16
2022-09-26T19:25:58.067Z,94960.47
2022-09-26T19:28:30.985Z,94958.09
2022-09-26T19:30:58.545Z,94954.44
2022-09-26T19:33:26.165Z,94956.22
2022-09-26T19:35:53.838Z,94955.13
2022-09-26T19:38:23.201Z,94958.09
2022-09-26T19:40:53.232Z,94964.22
2022-09-26T19:43:21.842Z,94948.00
2022-09-26T19:45:53.122Z,94948.41
2022-09-26T19:48:24.110Z,94969.16
2022-09-26T19:50:52.436Z,94965.84
2022-09-26T19:53:22.241Z,94956.66
2022-09-26T19:55:50.347Z,94964.56
2022-09-26T19:58:20.266Z,94964.44
2022-09-26T20:00:51.391Z,94963.59
2022-09-26T20:03:20.507Z,94966.69
2022-09-26T20:05:49.299Z,94956.25
2022-09-26T20:08:19.654Z,94948.91
2022-09-26T20:10:48.166Z,94943.00
2022-09-26T20:13:16.103Z,94943.19
2022-09-26T20:15:44.204Z,94937.81
2022-09-26T20:18:18.415Z,94934.06
2022-09-26T20:20:48.593Z,94925.00
2022-09-26T20:23:19.532Z,94928.69
2022-09-26T20:25:47.137Z,94925.84
2022-09-26T20:28:15.532Z,94910.19
2022-09-26T20:30:51.473Z,94910.97
2022-09-26T20:33:22.357Z,94906.22
2022-09-26T20:35:53.532Z,94896.25
2022-09-26T20:38:26.768Z,94886.84
2022-09-26T20:41:01.453Z,94890.81
2022-09-26T20:43:32.759Z,94880.06
2022-09-26T20:46:02.766Z,94881.81
2022-09-26T20:48:34.386Z,94877.19
2022-09-26T20:51:02.179Z,94876.38
2022-09-26T20:53:29.635Z,94869.34
2022-09-26T20:55:57.230Z,94872.84
2022-09-26T20:58:24.741Z,94862.75
2022-09-26T21:00:53.550Z,94863.56
2022-09-26T21:03:25.113Z,94855.47
2022-09-26T21:05:53.961Z,94849.38
2022-09-26T21:08:26.792Z,94837.06
2022-09-26T21:10:55.855Z,94843.28
2022-09-26T21:13:23.347Z,94841.25
2022-09-26T21:15:52.007Z,94840.44
2022-09-26T21:18:25.033Z,94834.53
2022-09-26T21:20:55.135Z,94837.00
2022-09-26T21:23:24.036Z,94829.13
2022-09-26T21:25:51.488Z,94828.16
2022-09-26T21:28:26.320Z,94826.00
2022-09-26T21:30:55.545Z,94819.28
2022-09-26T21:33:23.600Z,94815.06
2022-09-26T21:35:51.777Z,94813.97
2022-09-26T21:38:21.449Z,94807.09
2022-09-26T21:40:53.199Z,94807.94
2022-09-26T21:43:23.927Z,94800.19
2022-09-26T21:45:51.516Z,94809.16
2022-09-26T21:48:19.307Z,94791.09
2022-09-26T21:50:55.328Z,94791.03
2022-09-26T21:53:30.890Z,94790.44
2022-09-26T21:56:07.500Z,94784.03
2022-09-26T21:58:38.220Z,94775.97
2022-09-26T22:01:06.080Z,94772.53
2022-09-26T22:03:34.536Z,94767.47
2022-09-26T22:06:07.216Z,94763.34
2022-09-26T22:08:37.000Z,94749.78
2022-09-26T22:11:05.377Z,94738.59
2022-09-26T22:13:33.055Z,94741.25
2022-09-26T22:16:05.943Z,94744.09
2022-09-26T22:18:33.965Z,94739.56
2022-09-26T22:21:03.800Z,94722.03
2022-09-26T22:23:31.888Z,94724.34
2022-09-26T22:26:00.938Z,94721.78
2022-09-26T22:28:28.985Z,94720.19
2022-09-26T22:30:56.699Z,94708.22
2022-09-26T22:33:24.473Z,94706.81
2022-09-26T22:35:52.051Z,94704.56
2022-09-26T22:38:19.658Z,94717.28
2022-09-26T22:40:55.346Z,94694.09
2022-09-26T22:43:24.915Z,94701.56
2022-09-26T22:45:52.938Z,94705.34
2022-09-26T22:48:20.487Z,94690.25
2022-09-26T22:50:47.959Z,94682.94
2022-09-26T22:53:15.455Z,94687.00
2022-09-26T22:55:42.919Z,94682.69
2022-09-26T22:58:12.559Z,94680.81
2022-09-26T23:00:41.744Z,94671.31
2022-09-26T23:03:09.250Z,94668.06
2022-09-26T23:05:36.739Z,94664.84
2022-09-26T23:08:05.446Z,94651.78
2022-09-26T23:10:33.195Z,94650.63
2022-09-26T23:13:00.718Z,94650.25
2022-09-26T23:15:28.181Z,94645.84
2022-09-26T23:17:57.013Z,94642.13
2022-09-26T23:20:24.531Z,94641.44
2022-09-26T23:22:52.014Z,94646.91
2022-09-26T23:25:19.512Z,94636.16
2022-09-26T23:27:47.006Z,94624.63
2022-09-26T23:30:14.567Z,94621.13
2022-09-26T23:32:42.045Z,94630.53
2022-09-26T23:35:10.985Z,94625.41
2022-09-26T23:37:38.705Z,94615.47
2022-09-26T23:40:07.243Z,94613.94
2022-09-26T23:42:34.705Z,94603.09
2022-09-26T23:45:02.172Z,94598.13
2022-09-26T23:47:29.637Z,94594.41
2022-09-26T23:49:57.156Z,94595.19
2022-09-26T23:52:25.965Z,94589.59
2022-09-26T23:54:53.543Z,94593.06
2022-09-26T23:57:20.998Z,94586.88
2022-09-26T23:59:48.448Z,94583.84
